sensor_id;sensor_type;location;lat;lon;timestamp;pressure;altitude;pressure_sealevel;temperature;humidity
35519;BME280;21627;48.216;16.482;2023-08-17T00:02:18;100037.88;;;19.21;100.00
35519;BME280;21627;48.216;16.482;2023-08-17T00:04:45;100030.97;;;19.19;100.00
35519;BME280;21627;48.216;16.482;2023-08-17T00:07:12;100036.50;;;19.10;100.00
35519;BME280;21627;48.216;16.482;2023-08-17T00:09:39;100028.59;;;19.11;100.00
35519;BME280;21627;48.216;16.482;2023-08-17T00:12:07;100021.81;;;19.04;100.00
35519;BME280;21627;48.216;16.482;2023-08-17T00:14:34;100011.47;;;18.99;100.00
35519;BME280;21627;48.216;16.482;2023-08-17T00:17:01;100019.31;;;19.01;100.00
35519;BME280;21627;48.216;16.482;2023-08-17T00:19:29;100019.41;;;18.98;100.00
35519;BME280;21627;48.216;16.482;2023-08-17T00:21:56;100021.22;;;18.96;100.00
35519;BME280;21627;48.216;16.482;2023-08-17T00:24:24;100027.44;;;18.92;100.00
35519;BME280;21627;48.216;16.482;2023-08-17T00:26:51;100022.19;;;18.92;100.00
35519;BME280;21627;48.216;16.482;2023-08-17T00:29:18;100013.50;;;18.90;100.00
35519;BME280;21627;48.216;16.482;2023-08-17T00:31:45;100017.09;;;18.87;100.00
35519;BME280;21627;48.216;16.482;2023-08-17T00:34:12;100011.13;;;18.82;100.00
35519;BME280;21627;48.216;16.482;2023-08-17T00:36:39;100025.81;;;18.88;100.00
35519;BME280;21627;48.216;16.482;2023-08-17T00:39:06;100027.66;;;18.84;100.00
35519;BME280;21627;48.216;16.482;2023-08-17T00:41:34;100032.97;;;18.83;100.00
35519;BME280;21627;48.216;16.482;2023-08-17T00:44:01;100024.16;;;18.85;100.00
35519;BME280;21627;48.216;16.482;2023-08-17T00:46:29;100029.47;;;18.82;100.00
35519;BME280;21627;48.216;16.482;2023-08-17T00:48:57;100056.47;;;18.84;100.00
35519;BME280;21627;48.216;16.482;2023-08-17T00:51:26;100054.00;;;18.79;100.00
35519;BME280;21627;48.216;16.482;2023-08-17T00:53:58;100054.81;;;18.81;100.00
35519;BME280;21627;48.216;16.482;2023-08-17T00:56:29;100042.72;;;18.77;100.00
35519;BME280;21627;48.216;16.482;2023-08-17T00:58:56;100048.75;;;18.79;100.00
35519;BME280;21627;48.216;16.482;2023-08-17T01:01:24;100038.41;;;18.75;100.00
35519;BME280;21627;48.216;16.482;2023-08-17T01:03:51;100036.59;;;18.77;100.00
35519;BME280;21627;48.216;16.482;2023-08-17T01:06:19;100038.44;;;18.73;100.00
35519;BME280;21627;48.216;16.482;2023-08-17T01:08:46;100049.88;;;18.69;100.00
35519;BME280;21627;48.216;16.482;2023-08-17T01:11:32;100043.78;;;18.69;100.00
35519;BME280;21627;48.216;16.482;2023-08-17T01:14:43;100051.56;;;18.72;100.00
35519;BME280;21627;48.216;16.482;2023-08-17T01:17:30;100040.44;;;18.64;100.00
35519;BME280;21627;48.216;16.482;2023-08-17T01:19:58;100048.28;;;18.65;100.00
35519;BME280;21627;48.216;16.482;2023-08-17T01:22:29;100043.03;;;18.65;100.00
35519;BME280;21627;48.216;16.482;2023-08-17T01:24:57;100033.53;;;18.61;100.00
35519;BME280;21627;48.216;16.482;2023-08-17T01:27:24;100031.97;;;18.55;100.00
35519;BME280;21627;48.216;16.482;2023-08-17T01:29:52;100035.41;;;18.57;100.00
35519;BME280;21627;48.216;16.482;2023-08-17T01:33:06;100027.88;;;18.45;100.00
35519;BME280;21627;48.216;16.482;2023-08-17T01:35:46;100043.41;;;18.51;100.00
35519;BME280;21627;48.216;16.482;2023-08-17T01:38:18;100039.94;;;18.51;100.00
35519;BME280;21627;48.216;16.482;2023-08-17T01:40:50;100040.84;;;18.50;100.00
35519;BME280;21627;48.216;16.482;2023-08-17T01:43:18;100041.72;;;18.50;100.00
35519;BME280;21627;48.216;16.482;2023-08-17T01:45:45;100037.44;;;18.46;100.00
35519;BME280;21627;48.216;16.482;2023-08-17T01:48:13;100033.16;;;18.44;100.00
35519;BME280;21627;48.216;16.482;2023-08-17T01:50:40;100044.47;;;18.44;100.00
35519;BME280;21627;48.216;16.482;2023-08-17T01:53:07;100038.50;;;18.39;100.00
35519;BME280;21627;48.216;16.482;2023-08-17T01:55:35;100028.97;;;18.36;100.00
35519;BME280;21627;48.216;16.482;2023-08-17T01:58:02;100041.28;;;18.34;100.00
35519;BME280;21627;48.216;16.482;2023-08-17T02:00:29;100040.41;;;18.34;100.00
35519;BME280;21627;48.216;16.482;2023-08-17T02:02:56;100035.34;;;18.28;100.00
35519;BME280;21627;48.216;16.482;2023-08-17T02:05:24;100044.66;;;18.38;100.00
35519;BME280;21627;48.216;16.482;2023-08-17T02:07:52;100036.06;;;18.33;100.00
35519;BME280;21627;48.216;16.482;2023-08-17T02:10:19;100041.28;;;18.34;100.00
35519;BME280;21627;48.216;16.482;2023-08-17T02:12:46;100037.00;;;18.30;100.00
35519;BME280;21627;48.216;16.482;2023-08-17T02:15:14;100046.63;;;18.30;100.00
35519;BME280;21627;48.216;16.482;2023-08-17T02:17:41;100026.66;;;18.26;100.00
35519;BME280;21627;48.216;16.482;2023-08-17T02:20:09;100019.84;;;18.20;100.00
35519;BME280;21627;48.216;16.482;2023-08-17T02:22:37;100010.47;;;18.11;100.00
35519;BME280;21627;48.216;16.482;2023-08-17T02:25:05;100012.09;;;18.17;100.00
35519;BME280;21627;48.216;16.482;2023-08-17T02:27:32;100018.25;;;18.14;100.00
35519;BME280;21627;48.216;16.482;2023-08-17T02:29:59;100014.91;;;18.09;100.00
35519;BME280;21627;48.216;16.482;2023-08-17T02:32:26;100015.88;;;18.05;100.00
35519;BME280;21627;48.216;16.482;2023-08-17T02:34:53;100027.16;;;18.07;100.00
35519;BME280;21627;48.216;16.482;2023-08-17T02:37:20;100020.28;;;18.03;100.00
35519;BME280;21627;48.216;16.482;2023-08-17T02:39:47;100030.66;;;18.06;100.00
35519;BME280;21627;48.216;16.482;2023-08-17T02:42:14;100034.19;;;18.05;100.00
35519;BME280;21627;48.216;16.482;2023-08-17T02:44:41;100026.53;;;17.98;100.00
35519;BME280;21627;48.216;16.482;2023-08-17T02:47:08;100036.09;;;17.99;100.00
35519;BME280;21627;48.216;16.482;2023-08-17T02:49:36;100032.81;;;17.92;100.00
35519;BME280;21627;48.216;16.482;2023-08-17T02:52:03;100031.91;;;17.93;100.00
35519;BME280;21627;48.216;16.482;2023-08-17T02:54:30;100032.84;;;17.90;100.00
35519;BME280;21627;48.216;16.482;2023-08-17T02:56:59;100032.91;;;17.87;100.00
35519;BME280;21627;48.216;16.482;2023-08-17T02:59:26;100017.41;;;17.78;100.00
35519;BME280;21627;48.216;16.482;2023-08-17T03:01:53;100026.94;;;17.82;100.00
35519;BME280;21627;48.216;16.482;2023-08-17T03:04:21;100031.34;;;17.79;100.00
35519;BME280;21627;48.216;16.482;2023-08-17T03:06:49;100023.50;;;17.80;100.00
35519;BME280;21627;48.216;16.482;2023-08-17T03:09:16;100033.03;;;17.83;100.00
35519;BME280;21627;48.216;16.482;2023-08-17T03:11:43;100029.59;;;17.79;100.00
35519;BME280;21627;48.216;16.482;2023-08-17T03:14:10;100025.31;;;17.77;100.00
35519;BME280;21627;48.216;16.482;2023-08-17T03:16:37;100025.25;;;17.78;100.00
35519;BME280;21627;48.216;16.482;2023-08-17T03:19:05;100024.41;;;17.78;100.00
35519;BME280;21627;48.216;16.482;2023-08-17T03:21:34;100035.66;;;17.81;100.00
35519;BME280;21627;48.216;16.482;2023-08-17T03:24:01;100034.84;;;17.79;100.00
35519;BME280;21627;48.216;16.482;2023-08-17T03:26:29;100030.53;;;17.77;100.00
35519;BME280;21627;48.216;16.482;2023-08-17T03:28:56;100034.88;;;17.78;100.00
35519;BME280;21627;48.216;16.482;2023-08-17T03:31:23;100031.47;;;17.74;100.00
35519;BME280;21627;48.216;16.482;2023-08-17T03:33:50;100028.06;;;17.70;100.00
35519;BME280;21627;48.216;16.482;2023-08-17T03:36:17;100032.44;;;17.70;100.00
35519;BME280;21627;48.216;16.482;2023-08-17T03:38:44;100023.78;;;17.68;100.00
35519;BME280;21627;48.216;16.482;2023-08-17T03:41:11;100027.22;;;17.70;100.00
35519;BME280;21627;48.216;16.482;2023-08-17T03:43:38;100027.25;;;17.68;100.00
35519;BME280;21627;48.216;16.482;2023-08-17T03:46:05;100028.19;;;17.66;100.00
35519;BME280;21627;48.216;16.482;2023-08-17T03:48:32;100020.41;;;17.63;100.00
35519;BME280;21627;48.216;16.482;2023-08-17T03:51:00;100034.31;;;17.65;100.00
35519;BME280;21627;48.216;16.482;2023-08-17T03:53:28;100026.38;;;17.68;100.00
35519;BME280;21627;48.216;16.482;2023-08-17T03:55:55;100033.47;;;17.64;100.00
35519;BME280;21627;48.216;16.482;2023-08-17T03:58:22;100042.19;;;17.63;100.00
35519;BME280;21627;48.216;16.482;2023-08-17T04:00:52;100033.59;;;17.58;100.00
35519;BME280;21627;48.216;16.482;2023-08-17T04:03:20;100029.22;;;17.59;100.00
35519;BME280;21627;48.216;16.482;2023-08-17T04:05:47;100037.88;;;17.61;100.00
35519;BME280;21627;48.216;16.482;2023-08-17T04:08:14;100032.72;;;17.59;100.00
35519;BME280;21627;48.216;16.482;2023-08-17T04:10:41;100033.56;;;17.60;100.00
35519;BME280;21627;48.216;16.482;2023-08-17T04:13:08;100024.19;;;17.51;100.00
35519;BME280;21627;48.216;16.482;2023-08-17T04:15:35;100036.41;;;17.50;100.00
35519;BME280;21627;48.216;16.482;2023-08-17T04:18:03;100045.97;;;17.51;100.00
35519;BME280;21627;48.216;16.482;2023-08-17T04:20:30;100048.63;;;17.48;100.00
35519;BME280;21627;48.216;16.482;2023-08-17T04:22:57;100048.72;;;17.45;100.00
35519;BME280;21627;48.216;16.482;2023-08-17T04:25:24;100039.25;;;17.41;100.00
35519;BME280;21627;48.216;16.482;2023-08-17T04:27:51;100050.56;;;17.40;100.00
35519;BME280;21627;48.216;16.482;2023-08-17T04:30:18;100058.41;;;17.42;100.00
35519;BME280;21627;48.216;16.482;2023-08-17T04:32:46;100070.53;;;17.44;100.00
35519;BME280;21627;48.216;16.482;2023-08-17T04:35:20;100055.72;;;17.45;100.00
35519;BME280;21627;48.216;16.482;2023-08-17T04:37:48;100053.19;;;17.40;100.00
35519;BME280;21627;48.216;16.482;2023-08-17T04:40:15;100061.75;;;17.47;100.00
35519;BME280;21627;48.216;16.482;2023-08-17T04:42:42;100058.22;;;17.49;100.00
35519;BME280;21627;48.216;16.482;2023-08-17T04:45:09;100063.44;;;17.49;100.00
35519;BME280;21627;48.216;16.482;2023-08-17T04:47:37;100055.63;;;17.48;100.00
35519;BME280;21627;48.216;16.482;2023-08-17T04:50:05;100059.06;;;17.51;100.00
35519;BME280;21627;48.216;16.482;2023-08-17T04:52:33;100059.84;;;17.53;100.00
35519;BME280;21627;48.216;16.482;2023-08-17T04:55:00;100049.38;;;17.55;100.00
35519;BME280;21627;48.216;16.482;2023-08-17T04:57:27;100049.34;;;17.57;100.00
35519;BME280;21627;48.216;16.482;2023-08-17T04:59:55;100050.13;;;17.59;100.00
35519;BME280;21627;48.216;16.482;2023-08-17T05:02:22;100050.00;;;17.65;100.00
35519;BME280;21627;48.216;16.482;2023-08-17T05:04:49;100038.69;;;17.64;100.00
35519;BME280;21627;48.216;16.482;2023-08-17T05:07:16;100048.06;;;17.73;100.00
35519;BME280;21627;48.216;16.482;2023-08-17T05:09:43;100054.09;;;17.75;100.00
35519;BME280;21627;48.216;16.482;2023-08-17T05:12:10;100066.13;;;17.84;100.00
35519;BME280;21627;48.216;16.482;2023-08-17T05:14:37;100066.09;;;17.85;100.00
35519;BME280;21627;48.216;16.482;2023-08-17T05:17:04;100079.72;;;17.98;100.00
35519;BME280;21627;48.216;16.482;2023-08-17T05:19:31;100071.75;;;18.03;100.00
35519;BME280;21627;48.216;16.482;2023-08-17T05:21:59;100074.19;;;18.10;100.00
35519;BME280;21627;48.216;16.482;2023-08-17T05:24:26;100069.78;;;18.12;100.00
35519;BME280;21627;48.216;16.482;2023-08-17T05:26:54;100078.25;;;18.22;100.00
35519;BME280;21627;48.216;16.482;2023-08-17T05:29:21;100073.69;;;18.29;100.00
35519;BME280;21627;48.216;16.482;2023-08-17T05:31:48;100079.72;;;18.32;100.00
35519;BME280;21627;48.216;16.482;2023-08-17T05:34:15;100066.56;;;18.34;100.00
35519;BME280;21627;48.216;16.482;2023-08-17T05:36:42;100071.69;;;18.38;100.00
35519;BME280;21627;48.216;16.482;2023-08-17T05:39:09;100081.19;;;18.43;100.00
35519;BME280;21627;48.216;16.482;2023-08-17T05:41:36;100081.97;;;18.46;100.00
35519;BME280;21627;48.216;16.482;2023-08-17T05:44:03;100073.22;;;18.47;100.00
35519;BME280;21627;48.216;16.482;2023-08-17T05:46:30;100084.34;;;18.55;100.00
35519;BME280;21627;48.216;16.482;2023-08-17T05:48:58;100080.78;;;18.58;100.00
35519;BME280;21627;48.216;16.482;2023-08-17T05:51:26;100088.53;;;18.61;100.00
35519;BME280;21627;48.216;16.482;2023-08-17T05:53:53;100085.00;;;18.62;100.00
35519;BME280;21627;48.216;16.482;2023-08-17T05:56:20;100090.13;;;18.67;100.00
35519;BME280;21627;48.216;16.482;2023-08-17T05:58:47;100090.91;;;18.70;100.00
35519;BME280;21627;48.216;16.482;2023-08-17T06:01:14;100089.97;;;18.73;100.00
35519;BME280;21627;48.216;16.482;2023-08-17T06:03:41;100080.34;;;18.73;100.00
35519;BME280;21627;48.216;16.482;2023-08-17T06:06:10;100082.91;;;18.76;100.00
35519;BME280;21627;48.216;16.482;2023-08-17T06:08:37;100085.31;;;18.84;100.00
35519;BME280;21627;48.216;16.482;2023-08-17T06:11:04;100077.50;;;18.83;100.00
35519;BME280;21627;48.216;16.482;2023-08-17T06:13:31;100088.66;;;18.89;100.00
35519;BME280;21627;48.216;16.482;2023-08-17T06:15:58;100085.03;;;18.93;100.00
35519;BME280;21627;48.216;16.482;2023-08-17T06:18:25;100095.44;;;18.96;100.00
35519;BME280;21627;48.216;16.482;2023-08-17T06:20:52;100090.91;;;19.01;100.00
35519;BME280;21627;48.216;16.482;2023-08-17T06:23:20;100083.91;;;19.02;100.00
35519;BME280;21627;48.216;16.482;2023-08-17T06:25:48;100081.06;;;19.10;100.00
35519;BME280;21627;48.216;16.482;2023-08-17T06:28:15;100080.09;;;19.12;100.00
35519;BME280;21627;48.216;16.482;2023-08-17T06:30:42;100077.34;;;19.17;100.00
35519;BME280;21627;48.216;16.482;2023-08-17T06:33:09;100069.47;;;19.17;100.00
35519;BME280;21627;48.216;16.482;2023-08-17T06:35:36;100079.81;;;19.23;100.00
35519;BME280;21627;48.216;16.482;2023-08-17T06:38:03;100070.06;;;19.27;100.00
35519;BME280;21627;48.216;16.482;2023-08-17T06:40:30;100080.44;;;19.30;100.00
35519;BME280;21627;48.216;16.482;2023-08-17T06:42:57;100086.41;;;19.35;100.00
35519;BME280;21627;48.216;16.482;2023-08-17T06:45:24;100098.44;;;19.42;100.00
35519;BME280;21627;48.216;16.482;2023-08-17T06:47:52;100087.84;;;19.45;100.00
35519;BME280;21627;48.216;16.482;2023-08-17T06:50:19;100082.56;;;19.46;100.00
35519;BME280;21627;48.216;16.482;2023-08-17T06:52:46;100091.03;;;19.55;100.00
35519;BME280;21627;48.216;16.482;2023-08-17T06:55:13;100089.94;;;19.62;100.00
35519;BME280;21627;48.216;16.482;2023-08-17T06:57:42;100077.59;;;19.65;100.00
35519;BME280;21627;48.216;16.482;2023-08-17T07:00:10;100078.97;;;19.77;100.00
35519;BME280;21627;48.216;16.482;2023-08-17T07:02:40;100080.47;;;19.86;100.00
35519;BME280;21627;48.216;16.482;2023-08-17T07:05:20;100089.63;;;19.99;100.00
35519;BME280;21627;48.216;16.482;2023-08-17T07:07:47;100091.16;;;20.06;100.00
35519;BME280;21627;48.216;16.482;2023-08-17T07:10:15;100087.59;;;20.07;100.00
35519;BME280;21627;48.216;16.482;2023-08-17T07:12:42;100096.88;;;20.18;100.00
35519;BME280;21627;48.216;16.482;2023-08-17T07:15:10;100097.44;;;20.27;100.00
35519;BME280;21627;48.216;16.482;2023-08-17T07:17:38;100097.25;;;20.34;100.00
35519;BME280;21627;48.216;16.482;2023-08-17T07:20:05;100093.56;;;20.38;100.00
35519;BME280;21627;48.216;16.482;2023-08-17T07:22:43;100103.69;;;20.48;100.00
35519;BME280;21627;48.216;16.482;2023-08-17T07:25:10;100102.59;;;20.56;100.00
35519;BME280;21627;48.216;16.482;2023-08-17T07:27:37;100109.47;;;20.60;100.00
35519;BME280;21627;48.216;16.482;2023-08-17T07:30:05;100107.53;;;20.65;100.00
35519;BME280;21627;48.216;16.482;2023-08-17T07:32:33;100113.44;;;20.71;100.00
35519;BME280;21627;48.216;16.482;2023-08-17T07:35:00;100108.97;;;20.73;100.00
35519;BME280;21627;48.216;16.482;2023-08-17T07:37:28;100106.97;;;20.80;100.00
35519;BME280;21627;48.216;16.482;2023-08-17T07:40:01;100107.72;;;20.84;100.00
35519;BME280;21627;48.216;16.482;2023-08-17T07:42:31;100104.03;;;20.89;100.00
35519;BME280;21627;48.216;16.482;2023-08-17T07:44:58;100097.88;;;20.89;100.00
35519;BME280;21627;48.216;16.482;2023-08-17T07:47:25;100109.81;;;20.99;100.00
35519;BME280;21627;48.216;16.482;2023-08-17T07:49:53;100112.31;;;21.02;100.00
35519;BME280;21627;48.216;16.482;2023-08-17T07:52:20;100094.81;;;21.01;100.00
35519;BME280;21627;48.216;16.482;2023-08-17T07:54:47;100106.81;;;21.08;100.00
35519;BME280;21627;48.216;16.482;2023-08-17T07:57:14;100108.34;;;21.14;100.00
35519;BME280;21627;48.216;16.482;2023-08-17T07:59:41;100112.63;;;21.16;100.00
35519;BME280;21627;48.216;16.482;2023-08-17T08:02:08;100108.13;;;21.20;100.00
35519;BME280;21627;48.216;16.482;2023-08-17T08:04:35;100100.25;;;21.20;100.00
35519;BME280;21627;48.216;16.482;2023-08-17T08:07:03;100107.88;;;21.26;100.00
35519;BME280;21627;48.216;16.482;2023-08-17T08:09:30;100107.00;;;21.27;100.00
35519;BME280;21627;48.216;16.482;2023-08-17T08:11:57;100112.16;;;21.29;100.00
35519;BME280;21627;48.216;16.482;2023-08-17T08:14:24;100108.63;;;21.30;100.00
35519;BME280;21627;48.216;16.482;2023-08-17T08:16:51;100097.06;;;21.34;100.00
35519;BME280;21627;48.216;16.482;2023-08-17T08:19:18;100101.22;;;21.41;100.00
35519;BME280;21627;48.216;16.482;2023-08-17T08:21:45;100102.06;;;21.42;100.00
35519;BME280;21627;48.216;16.482;2023-08-17T08:24:12;100104.69;;;21.42;100.00
35519;BME280;21627;48.216;16.482;2023-08-17T08:26:52;100106.13;;;21.50;100.00
35519;BME280;21627;48.216;16.482;2023-08-17T08:29:21;100113.88;;;21.53;100.00
35519;BME280;21627;48.216;16.482;2023-08-17T08:31:48;100106.13;;;21.50;100.00
35519;BME280;21627;48.216;16.482;2023-08-17T08:34:15;100117.25;;;21.57;100.00
35519;BME280;21627;48.216;16.482;2023-08-17T08:36:42;100118.00;;;21.60;100.00
35519;BME280;21627;48.216;16.482;2023-08-17T08:39:10;100117.06;;;21.61;100.00
35519;BME280;21627;48.216;16.482;2023-08-17T08:41:38;100107.41;;;21.62;100.00
35519;BME280;21627;48.216;16.482;2023-08-17T08:44:05;100109.06;;;21.65;100.00
35519;BME280;21627;48.216;16.482;2023-08-17T08:46:33;100108.81;;;21.71;100.00
35519;BME280;21627;48.216;16.482;2023-08-17T08:49:03;100096.69;;;21.67;100.00
35519;BME280;21627;48.216;16.482;2023-08-17T08:51:34;100097.16;;;21.76;100.00
35519;BME280;21627;48.216;16.482;2023-08-17T08:54:06;100097.84;;;21.81;100.00
35519;BME280;21627;48.216;16.482;2023-08-17T08:56:38;100101.00;;;21.90;100.00
35519;BME280;21627;48.216;16.482;2023-08-17T08:59:06;100101.75;;;21.93;100.00
35519;BME280;21627;48.216;16.482;2023-08-17T09:01:35;100088.53;;;21.95;100.00
35519;BME280;21627;48.216;16.482;2023-08-17T09:04:02;100099.31;;;22.09;100.00
35519;BME280;21627;48.216;16.482;2023-08-17T09:06:32;100097.53;;;22.10;100.00
35519;BME280;21627;48.216;16.482;2023-08-17T09:09:01;100094.50;;;22.20;100.00
35519;BME280;21627;48.216;16.482;2023-08-17T09:11:29;100102.19;;;22.25;100.00
35519;BME280;21627;48.216;16.482;2023-08-17T09:13:57;100094.97;;;22.30;100.00
35519;BME280;21627;48.216;16.482;2023-08-17T09:16:24;100102.41;;;22.41;100.00
35519;BME280;21627;48.216;16.482;2023-08-17T09:18:54;100103.13;;;22.44;100.00
35519;BME280;21627;48.216;16.482;2023-08-17T09:21:23;100096.81;;;22.49;100.00
35519;BME280;21627;48.216;16.482;2023-08-17T09:23:55;100100.94;;;22.54;100.00
35519;BME280;21627;48.216;16.482;2023-08-17T09:26:31;100099.75;;;22.61;100.00
35519;BME280;21627;48.216;16.482;2023-08-17T09:29:01;100092.78;;;22.60;100.00
35519;BME280;21627;48.216;16.482;2023-08-17T09:31:42;100082.94;;;22.64;100.00
35519;BME280;21627;48.216;16.482;2023-08-17T09:34:10;100088.59;;;22.75;100.00
35519;BME280;21627;48.216;16.482;2023-08-17T09:36:37;100082.25;;;22.79;100.00
35519;BME280;21627;48.216;16.482;2023-08-17T09:39:06;100085.19;;;22.92;100.00
35519;BME280;21627;48.216;16.482;2023-08-17T09:41:41;100089.88;;;23.06;100.00
35519;BME280;21627;48.216;16.482;2023-08-17T09:44:09;100073.53;;;23.17;100.00
35519;BME280;21627;48.216;16.482;2023-08-17T09:46:37;100072.03;;;23.30;100.00
35519;BME280;21627;48.216;16.482;2023-08-17T09:49:06;100074.88;;;23.44;100.00
35519;BME280;21627;48.216;16.482;2023-08-17T09:51:34;100070.22;;;23.49;100.00
35519;BME280;21627;48.216;16.482;2023-08-17T09:54:01;100060.88;;;23.61;100.00
35519;BME280;21627;48.216;16.482;2023-08-17T09:56:31;100059.47;;;23.71;100.00
35519;BME280;21627;48.216;16.482;2023-08-17T09:58:59;100055.59;;;23.79;100.00
35519;BME280;21627;48.216;16.482;2023-08-17T10:01:28;100061.91;;;23.76;100.00
35519;BME280;21627;48.216;16.482;2023-08-17T10:03:57;100070.59;;;23.78;100.00
35519;BME280;21627;48.216;16.482;2023-08-17T10:06:28;100062.63;;;23.80;100.00
35519;BME280;21627;48.216;16.482;2023-08-17T10:08:58;100052.91;;;23.80;100.00
35519;BME280;21627;48.216;16.482;2023-08-17T10:11:27;100052.69;;;23.85;100.00
35519;BME280;21627;48.216;16.482;2023-08-17T10:14:01;100047.94;;;23.91;100.00
35519;BME280;21627;48.216;16.482;2023-08-17T10:16:45;100052.69;;;24.02;100.00
35519;BME280;21627;48.216;16.482;2023-08-17T10:19:43;100046.84;;;24.13;100.00
35519;BME280;21627;48.216;16.482;2023-08-17T10:22:39;100045.38;;;24.25;100.00
35519;BME280;21627;48.216;16.482;2023-08-17T10:25:12;100050.47;;;24.28;100.00
35519;BME280;21627;48.216;16.482;2023-08-17T10:27:41;100048.28;;;24.36;100.00
35519;BME280;21627;48.216;16.482;2023-08-17T10:30:12;100035.16;;;24.34;100.00
35519;BME280;21627;48.216;16.482;2023-08-17T10:32:40;100038.13;;;24.46;100.00
35519;BME280;21627;48.216;16.482;2023-08-17T10:35:13;100039.03;;;24.62;100.00
35519;BME280;21627;48.216;16.482;2023-08-17T10:37:41;100035.78;;;24.73;100.00
35519;BME280;21627;48.216;16.482;2023-08-17T10:40:10;100033.75;;;24.94;100.00
35519;BME280;21627;48.216;16.482;2023-08-17T10:42:41;100025.50;;;25.16;100.00
35519;BME280;21627;48.216;16.482;2023-08-17T10:45:28;100023.53;;;25.19;100.00
35519;BME280;21627;48.216;16.482;2023-08-17T10:50:39;100024.84;;;25.28;100.00
35519;BME280;21627;48.216;16.482;2023-08-17T10:53:13;100032.22;;;25.37;100.00
35519;BME280;21627;48.216;16.482;2023-08-17T10:55:46;100027.53;;;25.42;100.00
35519;BME280;21627;48.216;16.482;2023-08-17T10:58:18;100028.03;;;25.49;100.00
35519;BME280;21627;48.216;16.482;2023-08-17T11:00:46;100020.88;;;25.51;97.95
35519;BME280;21627;48.216;16.482;2023-08-17T11:03:20;100013.44;;;25.42;100.00
35519;BME280;21627;48.216;16.482;2023-08-17T11:05:56;100020.09;;;25.49;100.00
35519;BME280;21627;48.216;16.482;2023-08-17T11:08:37;100017.25;;;25.52;100.00
35519;BME280;21627;48.216;16.482;2023-08-17T11:11:13;100015.31;;;25.56;100.00
35519;BME280;21627;48.216;16.482;2023-08-17T11:13:45;100015.38;;;25.54;100.00
35519;BME280;21627;48.216;16.482;2023-08-17T11:16:15;100016.16;;;25.56;100.00
35519;BME280;21627;48.216;16.482;2023-08-17T11:18:46;100022.22;;;25.58;100.00
35519;BME280;21627;48.216;16.482;2023-08-17T11:21:16;100013.13;;;25.62;100.00
35519;BME280;21627;48.216;16.482;2023-08-17T11:23:46;100021.66;;;25.67;99.06
35519;BME280;21627;48.216;16.482;2023-08-17T11:26:17;100019.78;;;25.69;96.58
35519;BME280;21627;48.216;16.482;2023-08-17T11:28:46;100017.31;;;25.66;97.79
35519;BME280;21627;48.216;16.482;2023-08-17T11:31:14;100016.47;;;25.66;99.76
35519;BME280;21627;48.216;16.482;2023-08-17T11:33:44;100014.16;;;25.60;98.62
35519;BME280;21627;48.216;16.482;2023-08-17T11:36:14;100016.94;;;25.58;100.00
35519;BME280;21627;48.216;16.482;2023-08-17T11:38:43;100016.81;;;25.60;99.14
35519;BME280;21627;48.216;16.482;2023-08-17T11:41:11;100012.88;;;25.67;99.20
35519;BME280;21627;48.216;16.482;2023-08-17T11:43:42;100008.16;;;25.72;100.00
35519;BME280;21627;48.216;16.482;2023-08-17T11:46:10;100013.00;;;25.80;98.59
35519;BME280;21627;48.216;16.482;2023-08-17T11:48:38;100010.97;;;25.85;98.17
35519;BME280;21627;48.216;16.482;2023-08-17T11:51:05;100019.59;;;25.88;94.41
35519;BME280;21627;48.216;16.482;2023-08-17T11:53:36;100014.19;;;25.90;92.35
35519;BME280;21627;48.216;16.482;2023-08-17T11:56:06;100005.66;;;25.85;86.46
35519;BME280;21627;48.216;16.482;2023-08-17T11:58:41;100012.69;;;25.86;85.53
35519;BME280;21627;48.216;16.482;2023-08-17T12:01:10;100004.94;;;25.97;89.02
35519;BME280;21627;48.216;16.482;2023-08-17T12:03:39;100008.44;;;25.98;88.88
35519;BME280;21627;48.216;16.482;2023-08-17T12:06:10;100006.38;;;26.03;84.33
35519;BME280;21627;48.216;16.482;2023-08-17T12:08:37;100002.69;;;26.05;86.16
35519;BME280;21627;48.216;16.482;2023-08-17T12:11:04;99998.34;;;26.19;87.95
35519;BME280;21627;48.216;16.482;2023-08-17T12:13:35;99999.59;;;26.42;87.54
35519;BME280;21627;48.216;16.482;2023-08-17T12:16:03;99999.47;;;26.43;85.00
35519;BME280;21627;48.216;16.482;2023-08-17T12:18:34;99998.34;;;26.47;85.24
35519;BME280;21627;48.216;16.482;2023-08-17T12:21:03;99990.63;;;26.59;81.48
35519;BME280;21627;48.216;16.482;2023-08-17T12:23:32;99983.88;;;26.82;83.34
35519;BME280;21627;48.216;16.482;2023-08-17T12:26:00;99978.66;;;26.80;84.46
35519;BME280;21627;48.216;16.482;2023-08-17T12:28:27;99980.91;;;26.86;85.59
35519;BME280;21627;48.216;16.482;2023-08-17T12:31:02;99976.06;;;26.93;84.00
35519;BME280;21627;48.216;16.482;2023-08-17T12:33:30;99964.38;;;26.95;82.77
35519;BME280;21627;48.216;16.482;2023-08-17T12:35:57;99964.72;;;27.04;83.92
35519;BME280;21627;48.216;16.482;2023-08-17T12:38:25;99974.13;;;27.09;84.18
35519;BME280;21627;48.216;16.482;2023-08-17T12:40:54;99962.13;;;27.16;83.25
35519;BME280;21627;48.216;16.482;2023-08-17T12:43:21;99960.25;;;27.18;80.03